createdAt,value
2022-12-22T00:00:02.805Z,61.90
2022-12-22T00:02:58.598Z,51.78
2022-12-22T00:05:45.204Z,51.75
2022-12-22T00:08:31.103Z,48.80
2022-12-22T00:11:20.131Z,49.97
2022-12-22T00:14:06.492Z,56.75
2022-12-22T00:16:55.224Z,80.35
2022-12-22T00:19:41.927Z,79.95
2022-12-22T00:22:33.226Z,76.72
2022-12-22T00:25:18.983Z,75.87
2022-12-22T00:28:05.093Z,73.43
2022-12-22T00:30:51.095Z,66.85
2022-12-22T00:33:39.373Z,71.00
2022-12-22T00:36:29.203Z,73.03
2022-12-22T00:39:15.852Z,64.35
2022-12-22T00:42:02.247Z,60.72
2022-12-22T00:44:48.369Z,64.18
2022-12-22T00:47:44.257Z,62.00
2022-12-22T00:50:31.009Z,58.40
2022-12-22T00:53:18.399Z,62.83
2022-12-22T00:56:04.594Z,56.60
2022-12-22T00:58:51.047Z,56.30
2022-12-22T01:01:37.276Z,47.80
2022-12-22T01:04:23.311Z,47.95
2022-12-22T01:07:09.479Z,40.30
2022-12-22T01:09:55.454Z,36.95
2022-12-22T01:12:45.845Z,36.80
2022-12-22T01:15:37.746Z,41.00
2022-12-22T01:18:25.501Z,35.35
2022-12-22T01:21:12.378Z,37.10
2022-12-22T01:23:59.622Z,40.12
2022-12-22T01:26:45.880Z,47.95
2022-12-22T01:29:32.027Z,52.20
2022-12-22T01:32:17.957Z,41.50
2022-12-22T01:35:04.151Z,39.60
2022-12-22T01:37:50.028Z,39.72
2022-12-22T01:40:42.414Z,63.38
2022-12-22T01:43:46.441Z,50.33
2022-12-22T01:46:52.809Z,56.35
2022-12-22T01:49:49.270Z,69.53
2022-12-22T01:52:38.329Z,64.57
2022-12-22T01:55:32.269Z,56.75
2022-12-22T01:58:18.546Z,60.70
2022-12-22T02:01:05.899Z,59.28
2022-12-22T02:03:52.519Z,52.83
2022-12-22T02:07:00.232Z,51.25
2022-12-22T02:10:03.112Z,51.83
2022-12-22T02:13:13.282Z,54.50
2022-12-22T02:16:15.954Z,59.45
2022-12-22T02:19:38.381Z,48.65
2022-12-22T02:22:53.308Z,70.22
2022-12-22T02:25:50.517Z,75.10
2022-12-22T02:28:36.842Z,65.90
2022-12-22T02:31:25.070Z,69.07
2022-12-22T02:34:10.895Z,65.78
2022-12-22T02:37:09.486Z,57.58
2022-12-22T02:40:04.467Z,59.00
2022-12-22T02:42:53.697Z,52.65
2022-12-22T02:45:49.103Z,55.65
2022-12-22T02:48:42.293Z,53.03
2022-12-22T02:51:36.095Z,48.65
2022-12-22T02:54:24.709Z,53.05
2022-12-22T02:57:10.528Z,40.05
2022-12-22T02:59:56.694Z,43.58
2022-12-22T03:02:42.972Z,38.25
2022-12-22T03:05:29.197Z,44.08
2022-12-22T03:08:15.010Z,50.17
2022-12-22T03:11:01.173Z,56.80
2022-12-22T03:13:46.973Z,57.92
2022-12-22T03:16:33.254Z,66.93
2022-12-22T03:19:19.220Z,61.70
2022-12-22T03:22:05.259Z,58.30
2022-12-22T03:24:51.375Z,52.70
2022-12-22T03:27:19.071Z,48.65
2022-12-22T03:29:46.414Z,54.28
2022-12-22T03:32:13.832Z,68.57
2022-12-22T03:34:41.903Z,59.92
2022-12-22T03:37:09.243Z,69.05
2022-12-22T03:39:36.520Z,72.87
2022-12-22T03:42:22.566Z,66.18
2022-12-22T03:45:08.651Z,59.45
2022-12-22T03:47:36.238Z,44.20
2022-12-22T03:50:03.664Z,46.78
2022-12-22T03:52:31.172Z,50.03
2022-12-22T03:54:58.695Z,47.30
2022-12-22T03:57:25.974Z,50.65
2022-12-22T03:59:53.187Z,45.95
2022-12-22T04:02:20.803Z,40.60
2022-12-22T04:04:48.645Z,45.15
2022-12-22T04:07:16.059Z,39.50
2022-12-22T04:10:03.316Z,44.72
2022-12-22T04:12:49.697Z,44.47
2022-12-22T04:15:17.120Z,49.50
2022-12-22T04:17:44.811Z,57.58
2022-12-22T04:20:12.386Z,93.18
2022-12-22T04:22:39.586Z,124.32
2022-12-22T04:25:07.816Z,112.40
2022-12-22T04:27:35.409Z,96.60
2022-12-22T04:30:03.442Z,75.28
2022-12-22T04:32:31.424Z,58.75
2022-12-22T04:34:58.777Z,48.08
2022-12-22T04:37:26.827Z,36.60
2022-12-22T04:39:54.639Z,36.17
2022-12-22T04:42:21.972Z,41.15
2022-12-22T04:44:50.286Z,41.20
2022-12-22T04:47:18.191Z,43.60
2022-12-22T04:49:45.782Z,46.17
2022-12-22T04:52:13.447Z,44.45
2022-12-22T04:54:41.469Z,44.30
2022-12-22T04:57:09.190Z,39.67
2022-12-22T04:59:36.656Z,46.50
2022-12-22T05:02:04.945Z,54.25
2022-12-22T05:04:32.703Z,53.20
2022-12-22T05:07:00.273Z,69.93
2022-12-22T05:09:28.837Z,68.37
2022-12-22T05:11:56.126Z,51.78
2022-12-22T05:14:24.161Z,49.42
2022-12-22T05:16:52.192Z,101.90
2022-12-22T05:19:20.555Z,103.70
2022-12-22T05:21:48.060Z,106.95
2022-12-22T05:24:15.897Z,118.95
2022-12-22T05:26:43.409Z,106.07
2022-12-22T05:29:10.791Z,103.22
2022-12-22T05:31:43.245Z,93.87
2022-12-22T05:34:14.258Z,103.05
2022-12-22T05:36:41.908Z,86.90
2022-12-22T05:39:09.671Z,89.43
2022-12-22T05:41:37.171Z,78.82
2022-12-22T05:44:05.194Z,80.80
2022-12-22T05:46:32.595Z,70.37
2022-12-22T05:48:59.892Z,78.15
2022-12-22T05:51:27.753Z,115.72
2022-12-22T05:53:55.620Z,139.77
2022-12-22T05:56:23.816Z,97.30
2022-12-22T05:58:51.817Z,85.40
2022-12-22T06:01:19.177Z,80.03
2022-12-22T06:03:47.505Z,86.07
2022-12-22T06:06:14.768Z,95.45
2022-12-22T06:08:42.115Z,92.37
2022-12-22T06:11:10.312Z,74.30
2022-12-22T06:13:37.737Z,74.95
2022-12-22T06:16:05.416Z,63.90
2022-12-22T06:18:33.086Z,66.62
2022-12-22T06:21:00.375Z,59.30
2022-12-22T06:23:28.700Z,104.18
2022-12-22T06:25:59.623Z,131.98
2022-12-22T06:28:27.929Z,117.40
2022-12-22T06:30:56.216Z,106.57
2022-12-22T06:33:25.587Z,127.30
2022-12-22T06:35:58.711Z,115.95
2022-12-22T06:38:28.912Z,134.65
2022-12-22T06:40:56.634Z,180.90
2022-12-22T06:43:25.228Z,155.27
2022-12-22T06:45:53.833Z,178.20
2022-12-22T06:48:21.760Z,180.30
2022-12-22T06:50:49.206Z,179.15
2022-12-22T06:53:16.940Z,160.05
2022-12-22T06:55:44.482Z,189.82
2022-12-22T06:58:12.641Z,196.20
2022-12-22T07:00:40.303Z,169.65
2022-12-22T07:03:07.780Z,151.95
2022-12-22T07:05:35.275Z,147.57
2022-12-22T07:08:08.386Z,152.30
2022-12-22T07:10:55.581Z,140.25
2022-12-22T07:13:24.329Z,74.10
2022-12-22T07:16:00.221Z,55.60
2022-12-22T07:18:34.046Z,57.92
2022-12-22T07:21:03.754Z,47.53
2022-12-22T07:23:32.336Z,39.10
2022-12-22T07:26:00.151Z,34.58
2022-12-22T07:28:28.045Z,66.05
2022-12-22T07:30:56.303Z,80.60
2022-12-22T07:33:23.821Z,71.90
2022-12-22T07:36:01.849Z,69.40
2022-12-22T07:38:29.889Z,66.23
2022-12-22T07:41:04.635Z,59.27
2022-12-22T07:43:32.996Z,62.40
2022-12-22T07:46:00.571Z,72.57
2022-12-22T07:48:47.869Z,79.37
2022-12-22T07:51:16.311Z,78.87
2022-12-22T07:53:43.630Z,75.93
2022-12-22T07:56:10.904Z,56.97
2022-12-22T07:58:38.632Z,45.90
2022-12-22T08:01:05.931Z,63.53
2022-12-22T08:03:33.817Z,61.00
2022-12-22T08:06:05.306Z,62.40
2022-12-22T08:08:34.053Z,56.97
2022-12-22T08:11:03.337Z,59.92
2022-12-22T08:13:32.242Z,56.47
2022-12-22T08:16:05.539Z,59.22
2022-12-22T08:18:35.031Z,54.60
2022-12-22T08:21:03.717Z,52.17
2022-12-22T08:23:32.295Z,59.60
2022-12-22T08:26:09.279Z,47.65
2022-12-22T08:28:42.000Z,182.80
2022-12-22T08:31:10.830Z,113.90
2022-12-22T08:33:38.194Z,63.13
2022-12-22T08:36:08.499Z,45.00
2022-12-22T08:38:38.877Z,30.63
2022-12-22T08:41:07.913Z,40.80
2022-12-22T08:46:02.951Z,28.90
2022-12-22T08:48:30.378Z,88.70
2022-12-22T08:50:58.272Z,48.73
2022-12-22T08:54:02.394Z,38.33
2022-12-22T08:56:13.388Z,44.47
2022-12-22T08:58:40.966Z,37.33
2022-12-22T09:01:08.531Z,30.77
2022-12-22T09:03:36.243Z,33.63
2022-12-22T09:06:03.942Z,31.77
2022-12-22T09:08:34.617Z,41.17
2022-12-22T09:11:05.765Z,37.50
2022-12-22T09:13:33.282Z,35.83
2022-12-22T09:16:04.538Z,30.67
2022-12-22T09:18:32.365Z,35.77
2022-12-22T09:21:00.591Z,32.33
2022-12-22T09:23:30.249Z,40.47
2022-12-22T09:25:58.015Z,53.33
2022-12-22T09:28:25.435Z,56.97
2022-12-22T09:30:53.766Z,48.83
2022-12-22T09:33:21.658Z,96.93
2022-12-22T09:35:49.096Z,46.17
2022-12-22T09:38:16.956Z,85.03
2022-12-22T09:40:44.685Z,56.67
2022-12-22T09:43:19.356Z,38.47
2022-12-22T09:45:48.273Z,103.83
2022-12-22T09:48:16.012Z,38.33
2022-12-22T09:50:59.484Z,35.60
2022-12-22T09:53:27.293Z,40.17
2022-12-22T09:55:55.355Z,28.03
2022-12-22T09:58:34.792Z,18.53
2022-12-22T10:01:05.963Z,29.50
2022-12-22T10:03:43.554Z,73.50
2022-12-22T10:06:18.038Z,47.63
2022-12-22T10:08:46.251Z,42.17
2022-12-22T10:11:19.112Z,28.00
2022-12-22T10:13:47.021Z,60.77
2022-12-22T10:16:23.755Z,28.23
2022-12-22T10:19:02.107Z,52.10
2022-12-22T10:21:29.567Z,42.93
2022-12-22T10:23:57.280Z,54.63
2022-12-22T10:26:32.555Z,31.53
2022-12-22T10:29:10.669Z,25.40
2022-12-22T10:31:57.574Z,28.30
2022-12-22T10:34:25.689Z,25.93
2022-12-22T10:36:57.770Z,31.07
2022-12-22T10:39:28.405Z,26.87
2022-12-22T10:42:09.588Z,21.23
2022-12-22T10:44:39.332Z,29.90
2022-12-22T10:47:24.447Z,15.67
2022-12-22T10:52:31.029Z,20.13
2022-12-22T10:55:18.633Z,14.80
2022-12-22T10:57:46.192Z,13.73
2022-12-22T11:00:29.964Z,11.80
2022-12-22T11:03:02.325Z,8.90
2022-12-22T11:05:32.628Z,7.53
2022-12-22T11:08:20.233Z,11.33
2022-12-22T11:11:26.648Z,12.27
2022-12-22T11:14:04.117Z,10.30
2022-12-22T11:16:36.831Z,12.63
2022-12-22T11:19:33.386Z,11.13
2022-12-22T11:22:24.183Z,11.00
2022-12-22T11:25:10.318Z,8.37
2022-12-22T11:27:47.993Z,17.73
2022-12-22T11:30:21.764Z,9.17
2022-12-22T11:32:58.395Z,10.87
2022-12-22T11:35:49.024Z,11.37
2022-12-22T11:38:46.991Z,8.07
2022-12-22T11:41:29.301Z,5.97
2022-12-22T11:44:30.728Z,9.50
2022-12-22T11:47:17.234Z,12.70
2022-12-22T11:51:00.261Z,8.73
2022-12-22T11:53:20.852Z,7.50
2022-12-22T11:56:25.462Z,7.43
2022-12-22T11:59:01.230Z,6.50
2022-12-22T12:01:40.686Z,6.47
2022-12-22T12:04:27.019Z,9.60
2022-12-22T12:07:29.403Z,9.20
2022-12-22T12:10:31.976Z,14.67
2022-12-22T12:13:05.346Z,11.20
2022-12-22T12:15:45.733Z,16.70
2022-12-22T12:18:28.154Z,20.80
2022-12-22T12:21:07.348Z,16.33
2022-12-22T12:24:12.149Z,13.57
2022-12-22T12:27:01.064Z,14.50
2022-12-22T12:29:35.757Z,15.30
2022-12-22T12:32:14.049Z,20.30
2022-12-22T12:34:47.163Z,22.37
2022-12-22T12:37:26.325Z,16.60
2022-12-22T12:40:20.965Z,19.62
2022-12-22T12:42:49.467Z,15.30
2022-12-22T12:45:35.165Z,14.63
2022-12-22T12:48:21.339Z,17.00
2022-12-22T12:50:58.416Z,18.73
2022-12-22T12:53:28.769Z,21.30
2022-12-22T12:55:58.500Z,20.35
2022-12-22T12:58:38.124Z,24.33
2022-12-22T13:01:33.166Z,16.15
2022-12-22T13:04:04.295Z,18.67
2022-12-22T13:06:52.212Z,14.43
2022-12-22T13:12:39.556Z,17.23
2022-12-22T13:15:27.241Z,13.77
2022-12-22T13:17:54.807Z,18.27
2022-12-22T13:20:30.046Z,13.35
2022-12-22T13:23:00.574Z,29.37
2022-12-22T13:25:47.808Z,37.65
2022-12-22T13:28:17.215Z,42.88
2022-12-22T13:30:51.231Z,85.95
2022-12-22T13:33:21.148Z,124.37
2022-12-22T13:35:56.584Z,122.77
2022-12-22T13:38:37.842Z,117.77
2022-12-22T13:41:21.368Z,89.10
2022-12-22T13:43:57.496Z,96.27
2022-12-22T13:46:27.533Z,88.50
2022-12-22T13:48:57.105Z,93.97
2022-12-22T13:51:29.207Z,100.73
2022-12-22T13:54:11.206Z,94.90
2022-12-22T13:56:45.721Z,107.43
2022-12-22T13:59:32.171Z,174.60
2022-12-22T14:02:01.544Z,203.60
2022-12-22T14:04:30.397Z,630.23
2022-12-22T14:07:09.663Z,318.45
2022-12-22T14:09:38.126Z,215.33
2022-12-22T14:12:20.160Z,260.80
2022-12-22T14:14:52.391Z,270.77
2022-12-22T14:17:30.527Z,281.60
2022-12-22T14:20:00.344Z,236.43
2022-12-22T14:22:34.171Z,247.77
2022-12-22T14:25:15.737Z,255.63
2022-12-22T14:27:48.954Z,258.03
2022-12-22T14:30:19.723Z,221.47
2022-12-22T14:32:54.660Z,198.23
2022-12-22T14:35:23.193Z,200.63
2022-12-22T14:38:07.721Z,218.43
2022-12-22T14:40:38.632Z,195.90
2022-12-22T14:43:20.545Z,182.63
2022-12-22T14:45:50.764Z,125.87
2022-12-22T14:48:45.243Z,145.30
2022-12-22T14:51:18.837Z,129.60
2022-12-22T14:53:55.919Z,141.63
2022-12-22T14:56:24.765Z,152.17
2022-12-22T14:58:52.298Z,152.77
2022-12-22T15:01:29.546Z,151.47
2022-12-22T15:04:08.330Z,139.43
2022-12-22T15:06:40.290Z,129.70
2022-12-22T15:09:47.234Z,122.40
2022-12-22T15:12:14.856Z,103.50
2022-12-22T15:14:42.702Z,113.77
2022-12-22T15:17:28.164Z,91.40
2022-12-22T15:19:58.965Z,84.23
2022-12-22T15:22:26.419Z,87.60
2022-12-22T15:24:53.789Z,63.40
2022-12-22T15:27:21.576Z,74.57
2022-12-22T15:29:48.966Z,67.33
2022-12-22T15:32:16.216Z,70.33
2022-12-22T15:34:44.048Z,70.33
2022-12-22T15:37:12.950Z,59.43
2022-12-22T15:39:40.672Z,65.55
2022-12-22T15:42:08.510Z,76.80
2022-12-22T15:44:38.948Z,100.13
2022-12-22T15:47:10.599Z,101.57
2022-12-22T15:49:38.813Z,89.30
2022-12-22T15:52:07.106Z,95.00
2022-12-22T15:54:36.513Z,76.30
2022-12-22T15:57:04.340Z,81.87
2022-12-22T15:59:31.676Z,82.23
2022-12-22T16:02:01.771Z,86.43
2022-12-22T16:04:30.225Z,83.30
2022-12-22T16:06:59.648Z,86.07
2022-12-22T16:11:58.022Z,84.40
2022-12-22T16:14:25.390Z,87.40
2022-12-22T16:16:52.713Z,81.77
2022-12-22T16:19:20.460Z,64.80
2022-12-22T16:21:51.625Z,55.03
2022-12-22T16:24:32.009Z,53.63
2022-12-22T16:27:00.649Z,53.10
2022-12-22T16:29:28.298Z,67.93
2022-12-22T16:32:17.649Z,66.43
2022-12-22T16:34:45.815Z,90.33
2022-12-22T16:37:13.224Z,92.80
2022-12-22T16:39:40.967Z,76.07
2022-12-22T16:45:06.217Z,60.23
2022-12-22T16:47:36.605Z,47.37
2022-12-22T16:50:06.731Z,42.93
2022-12-22T16:52:38.993Z,45.03
2022-12-22T16:55:17.541Z,50.33
2022-12-22T16:57:45.451Z,58.55
2022-12-22T17:00:18.900Z,58.13
2022-12-22T17:02:51.989Z,68.87
2022-12-22T17:05:25.555Z,65.67
2022-12-22T17:07:55.375Z,70.20
2022-12-22T17:12:55.431Z,70.57
2022-12-22T17:15:24.220Z,73.93
2022-12-22T17:17:52.513Z,81.45
2022-12-22T17:20:22.943Z,57.47
2022-12-22T17:23:02.453Z,78.07
2022-12-22T17:25:31.290Z,78.07
2022-12-22T17:28:01.812Z,70.37
2022-12-22T17:30:29.219Z,85.63
2022-12-22T17:32:56.647Z,86.80
2022-12-22T17:35:26.263Z,110.90
2022-12-22T17:37:54.904Z,209.10
2022-12-22T17:40:26.786Z,185.98
2022-12-22T17:42:54.828Z,162.77
2022-12-22T17:45:22.470Z,114.00
2022-12-22T17:47:50.093Z,82.70
2022-12-22T17:50:20.360Z,77.97
2022-12-22T17:52:48.177Z,67.27
2022-12-22T17:56:05.891Z,60.73
2022-12-22T17:58:17.161Z,59.33
2022-12-22T18:03:14.249Z,35.50
2022-12-22T18:08:18.268Z,31.10
2022-12-22T18:10:47.654Z,36.30
2022-12-22T18:13:22.970Z,39.17
2022-12-22T18:15:50.365Z,39.03
2022-12-22T18:18:18.473Z,38.77
2022-12-22T18:21:06.175Z,48.93
2022-12-22T18:26:08.553Z,61.33
2022-12-22T18:28:37.070Z,61.77
2022-12-22T18:31:04.522Z,73.00
2022-12-22T18:33:31.931Z,112.33
2022-12-22T18:36:00.136Z,85.87
2022-12-22T18:38:33.290Z,79.03
2022-12-22T18:41:01.219Z,80.47
2022-12-22T18:43:28.560Z,79.97
2022-12-22T18:45:55.815Z,76.73
2022-12-22T18:48:23.607Z,70.40
2022-12-22T18:50:51.339Z,66.70
2022-12-22T18:53:24.634Z,94.47
2022-12-22T18:55:52.534Z,126.50
2022-12-22T18:58:19.964Z,117.73
2022-12-22T19:00:48.050Z,113.97
2022-12-22T19:03:21.721Z,127.28
2022-12-22T19:05:49.628Z,115.23
2022-12-22T19:08:26.057Z,107.20
2022-12-22T19:10:56.321Z,104.87
2022-12-22T19:13:39.028Z,85.40
2022-12-22T19:16:07.513Z,68.67
2022-12-22T19:18:35.255Z,61.28
2022-12-22T19:21:02.888Z,49.63
2022-12-22T19:23:30.266Z,42.03
2022-12-22T19:26:08.506Z,37.07
2022-12-22T19:28:42.810Z,37.15
2022-12-22T19:31:21.057Z,56.93
2022-12-22T19:33:49.297Z,46.70
2022-12-22T19:36:21.838Z,54.40
2022-12-22T19:38:50.971Z,51.77
2022-12-22T19:41:47.348Z,105.17
2022-12-22T19:44:21.711Z,86.30
2022-12-22T19:46:50.376Z,92.47
2022-12-22T19:49:23.143Z,86.47
2022-12-22T19:51:51.375Z,72.73
2022-12-22T19:54:22.148Z,72.37
2022-12-22T19:56:53.564Z,54.90
2022-12-22T19:59:37.293Z,56.47
2022-12-22T20:02:25.092Z,55.97
2022-12-22T20:04:53.840Z,56.17
2022-12-22T20:07:24.904Z,52.37
2022-12-22T20:09:53.090Z,42.83
2022-12-22T20:12:20.327Z,53.30
2022-12-22T20:14:47.680Z,64.80
2022-12-22T20:17:15.330Z,65.27
2022-12-22T20:19:42.650Z,71.67
2022-12-22T20:22:15.434Z,66.20
2022-12-22T20:24:46.496Z,63.13
2022-12-22T20:27:34.807Z,46.37
2022-12-22T20:30:02.543Z,36.15
2022-12-22T20:32:30.502Z,39.40
2022-12-22T20:34:57.967Z,34.00
2022-12-22T20:37:28.637Z,35.63
2022-12-22T20:39:56.036Z,31.00
2022-12-22T20:42:24.630Z,34.70
2022-12-22T20:45:02.191Z,50.88
2022-12-22T20:47:31.179Z,54.53
2022-12-22T20:49:59.658Z,58.97
2022-12-22T20:52:27.109Z,53.43
2022-12-22T20:54:54.487Z,65.60
2022-12-22T20:57:23.548Z,65.70
2022-12-22T20:59:56.068Z,60.50
2022-12-22T21:02:29.525Z,62.53
2022-12-22T21:04:57.278Z,64.47
2022-12-22T21:07:25.271Z,59.90
2022-12-22T21:09:52.901Z,66.97
2022-12-22T21:12:21.271Z,105.57
2022-12-22T21:14:49.696Z,76.43
2022-12-22T21:17:17.545Z,66.87
2022-12-22T21:19:45.553Z,59.47
2022-12-22T21:22:13.214Z,56.50
2022-12-22T21:24:41.914Z,57.77
2022-12-22T21:27:17.454Z,73.00
2022-12-22T21:29:45.312Z,63.90
2022-12-22T21:32:15.593Z,64.70
2022-12-22T21:34:42.976Z,75.90
2022-12-22T21:37:18.461Z,70.13
2022-12-22T21:39:46.290Z,85.18
2022-12-22T21:42:20.015Z,81.25
2022-12-22T21:44:47.583Z,85.20
2022-12-22T21:47:18.563Z,69.53
2022-12-22T21:49:45.881Z,67.55
2022-12-22T21:52:13.407Z,60.58
2022-12-22T21:54:41.131Z,59.37
2022-12-22T21:57:15.119Z,62.67
2022-12-22T21:59:42.874Z,56.27
2022-12-22T22:02:16.474Z,88.00
2022-12-22T22:04:50.146Z,59.95
2022-12-22T22:07:21.756Z,53.73
2022-12-22T22:09:49.504Z,53.27
2022-12-22T22:12:32.969Z,55.15
2022-12-22T22:15:04.044Z,49.47
2022-12-22T22:17:31.669Z,117.30
2022-12-22T22:19:59.055Z,115.50
2022-12-22T22:22:26.864Z,129.95
2022-12-22T22:24:54.171Z,100.28
2022-12-22T22:27:21.712Z,152.77
2022-12-22T22:29:49.440Z,203.07
2022-12-22T22:32:17.121Z,200.27
2022-12-22T22:34:44.447Z,193.95
2022-12-22T22:37:12.387Z,189.50
2022-12-22T22:39:39.607Z,177.57
2022-12-22T22:42:07.001Z,165.87
2022-12-22T22:44:34.658Z,153.27
2022-12-22T22:47:02.085Z,129.93
2022-12-22T22:49:29.416Z,133.52
2022-12-22T22:51:57.077Z,130.30
2022-12-22T22:54:24.332Z,159.35
2022-12-22T22:56:52.763Z,160.23
2022-12-22T22:59:21.931Z,153.63
2022-12-22T23:01:49.276Z,154.90
2022-12-22T23:04:16.921Z,140.27
2022-12-22T23:06:44.837Z,134.60
2022-12-22T23:09:12.195Z,120.35
2022-12-22T23:11:39.464Z,96.97
2022-12-22T23:14:07.220Z,106.60
2022-12-22T23:16:38.454Z,102.25
2022-12-22T23:19:06.965Z,92.53
2022-12-22T23:21:34.576Z,98.22
2022-12-22T23:24:01.923Z,108.37
2022-12-22T23:26:29.626Z,112.62
2022-12-22T23:29:02.858Z,115.30
2022-12-22T23:31:34.973Z,100.57
2022-12-22T23:34:02.836Z,93.78
2022-12-22T23:36:30.548Z,93.37
2022-12-22T23:38:58.369Z,100.15
2022-12-22T23:41:25.606Z,82.50
2022-12-22T23:43:54.572Z,97.55
2022-12-22T23:46:22.279Z,101.68
2022-12-22T23:48:54.782Z,99.78
2022-12-22T23:51:24.391Z,103.95
2022-12-22T23:53:51.662Z,67.32
2022-12-22T23:56:19.194Z,66.80
2022-12-22T23:58:49.590Z,77.40
